createdAt,value
2023-05-25T00:01:38.668Z,18.77
2023-05-25T00:04:10.491Z,19.08
2023-05-25T00:06:41.333Z,18.90
2023-05-25T00:09:10.408Z,18.75
2023-05-25T00:11:39.562Z,19.63
2023-05-25T00:14:08.819Z,19.98
2023-05-25T00:16:38.076Z,19.42
2023-05-25T00:19:10.774Z,20.20
2023-05-25T00:21:41.528Z,19.80
2023-05-25T00:24:10.663Z,19.88
2023-05-25T00:26:39.508Z,19.48
2023-05-25T00:29:08.623Z,19.58
2023-05-25T00:31:37.396Z,18.90
2023-05-25T00:34:06.605Z,20.95
2023-05-25T00:36:35.339Z,19.75
2023-05-25T00:39:07.169Z,18.98
2023-05-25T00:41:41.473Z,21.70
2023-05-25T00:44:10.576Z,21.05
2023-05-25T00:46:39.838Z,20.52
2023-05-25T00:49:09.237Z,22.35
2023-05-25T00:51:38.169Z,21.70
2023-05-25T00:54:10.090Z,22.30
2023-05-25T00:56:43.530Z,22.17
2023-05-25T00:59:18.637Z,21.90
2023-05-25T01:01:49.807Z,22.73
2023-05-25T01:04:22.588Z,22.40
2023-05-25T01:06:53.509Z,24.35
2023-05-25T01:09:26.015Z,23.77
2023-05-25T01:11:56.774Z,23.80
2023-05-25T01:14:27.262Z,23.17
2023-05-25T01:16:59.908Z,23.67
2023-05-25T01:19:28.939Z,24.55
2023-05-25T01:22:06.322Z,25.13
2023-05-25T01:24:41.932Z,23.80
2023-05-25T01:27:23.177Z,24.17
2023-05-25T01:29:53.603Z,25.92
2023-05-25T01:32:25.204Z,24.98
2023-05-25T01:34:59.007Z,24.65
2023-05-25T01:37:29.552Z,23.63
2023-05-25T01:39:58.995Z,24.90
2023-05-25T01:42:27.753Z,23.80
2023-05-25T01:44:57.151Z,24.77
2023-05-25T01:47:38.546Z,24.40
2023-05-25T01:50:16.836Z,25.10
2023-05-25T01:52:56.381Z,22.35
2023-05-25T01:55:30.056Z,24.85
2023-05-25T01:58:02.083Z,23.95
2023-05-25T02:00:33.542Z,24.10
2023-05-25T02:03:03.592Z,23.77
2023-05-25T02:05:33.281Z,23.75
2023-05-25T02:08:03.816Z,23.20
2023-05-25T02:10:34.465Z,22.27
2023-05-25T02:13:03.300Z,23.02
2023-05-25T02:15:34.704Z,23.70
2023-05-25T02:18:05.935Z,23.70
2023-05-25T02:20:35.161Z,24.73
2023-05-25T02:23:06.065Z,25.23
2023-05-25T02:25:35.141Z,23.85
2023-05-25T02:28:05.125Z,22.70
2023-05-25T02:30:34.534Z,24.23
2023-05-25T02:33:03.435Z,25.92
2023-05-25T02:35:32.550Z,25.83
2023-05-25T02:38:01.886Z,22.92
2023-05-25T02:40:32.433Z,23.40
2023-05-25T02:43:01.186Z,23.17
2023-05-25T02:45:30.338Z,23.30
2023-05-25T02:47:59.362Z,23.20
2023-05-25T02:50:29.229Z,22.83
2023-05-25T02:52:59.867Z,23.83
2023-05-25T02:55:28.890Z,23.15
2023-05-25T02:58:00.065Z,23.85
2023-05-25T03:00:46.916Z,24.13
2023-05-25T03:03:16.216Z,21.55
2023-05-25T03:05:46.177Z,24.13
2023-05-25T03:08:15.017Z,23.98
2023-05-25T03:10:44.489Z,24.90
2023-05-25T03:13:15.330Z,25.85
2023-05-25T03:15:44.926Z,25.90
2023-05-25T03:18:13.984Z,24.10
2023-05-25T03:20:44.122Z,24.48
2023-05-25T03:23:12.911Z,25.40
2023-05-25T03:25:42.276Z,24.58
2023-05-25T03:28:12.028Z,25.55
2023-05-25T03:30:45.854Z,23.88
2023-05-25T03:33:15.567Z,23.73
2023-05-25T03:35:48.922Z,24.45
2023-05-25T03:38:18.024Z,23.33
2023-05-25T03:40:47.576Z,24.17
2023-05-25T03:43:16.403Z,24.63
2023-05-25T03:45:49.506Z,24.58
2023-05-25T03:48:18.912Z,25.45
2023-05-25T03:50:49.078Z,24.63
2023-05-25T03:53:18.181Z,23.25
2023-05-25T03:55:51.975Z,23.63
2023-05-25T03:58:20.962Z,23.40
2023-05-25T04:00:51.852Z,24.45
2023-05-25T04:03:21.166Z,24.35
2023-05-25T04:05:50.383Z,24.70
2023-05-25T04:08:20.712Z,25.23
2023-05-25T04:10:50.021Z,24.42
2023-05-25T04:13:18.776Z,23.55
2023-05-25T04:15:47.788Z,24.40
2023-05-25T04:18:24.509Z,24.23
2023-05-25T04:20:55.538Z,23.30
2023-05-25T04:23:24.954Z,24.33
2023-05-25T04:25:55.495Z,25.48
2023-05-25T04:28:24.593Z,25.23
2023-05-25T04:31:00.635Z,24.00
2023-05-25T04:34:06.022Z,24.30
2023-05-25T04:36:43.278Z,24.02
2023-05-25T04:39:13.706Z,25.45
2023-05-25T04:41:48.538Z,25.70
2023-05-25T04:44:17.885Z,26.15
2023-05-25T04:46:50.602Z,25.38
2023-05-25T04:49:28.249Z,26.13
2023-05-25T04:51:57.330Z,25.05
2023-05-25T04:54:29.560Z,26.45
2023-05-25T04:57:01.795Z,24.95
2023-05-25T04:59:32.776Z,25.38
2023-05-25T05:02:02.547Z,25.17
2023-05-25T05:04:32.698Z,24.75
2023-05-25T05:07:01.789Z,24.83
2023-05-25T05:09:33.271Z,24.58
2023-05-25T05:12:03.823Z,23.17
2023-05-25T05:14:38.068Z,23.85
2023-05-25T05:17:07.518Z,23.40
2023-05-25T05:19:37.733Z,23.65
2023-05-25T05:22:09.908Z,23.92
2023-05-25T05:24:40.044Z,24.48
2023-05-25T05:27:09.233Z,23.83
2023-05-25T05:29:44.485Z,23.95
2023-05-25T05:32:13.523Z,22.80
2023-05-25T05:34:43.698Z,24.52
2023-05-25T05:37:25.490Z,24.08
2023-05-25T05:39:54.455Z,23.27
2023-05-25T05:42:23.520Z,22.23
2023-05-25T05:44:52.322Z,24.02
2023-05-25T05:47:21.419Z,25.00
2023-05-25T05:49:51.705Z,23.80
2023-05-25T05:52:20.877Z,23.38
2023-05-25T05:54:49.633Z,21.75
2023-05-25T05:57:18.864Z,21.02
2023-05-25T05:59:48.025Z,22.98
2023-05-25T06:02:17.197Z,21.67
2023-05-25T06:04:46.461Z,23.25
2023-05-25T06:07:16.901Z,23.25
2023-05-25T06:09:45.734Z,23.35
2023-05-25T06:12:16.223Z,23.80
2023-05-25T06:14:49.221Z,22.98
2023-05-25T06:17:18.341Z,22.80
2023-05-25T06:19:47.218Z,21.73
2023-05-25T06:22:19.373Z,22.00
2023-05-25T06:24:48.156Z,23.90
2023-05-25T06:27:17.598Z,25.08
2023-05-25T06:29:46.599Z,23.98
2023-05-25T06:32:15.863Z,23.92
2023-05-25T06:34:45.054Z,23.55
2023-05-25T06:37:14.955Z,24.00
2023-05-25T06:39:45.607Z,23.90
2023-05-25T06:42:14.883Z,23.90
2023-05-25T06:44:53.653Z,23.17
2023-05-25T06:47:22.927Z,23.35
2023-05-25T06:49:51.847Z,23.13
2023-05-25T06:52:20.593Z,23.05
2023-05-25T06:54:51.132Z,22.45
2023-05-25T06:57:19.857Z,23.35
2023-05-25T06:59:48.983Z,23.38
2023-05-25T07:02:18.950Z,22.83
2023-05-25T07:04:48.387Z,23.05
2023-05-25T07:07:17.371Z,22.35
2023-05-25T07:09:47.541Z,23.40
2023-05-25T07:12:18.284Z,22.65
2023-05-25T07:14:48.533Z,22.67
2023-05-25T07:17:17.532Z,23.30
2023-05-25T07:19:46.683Z,22.38
2023-05-25T07:22:17.058Z,23.20
2023-05-25T07:24:46.385Z,23.58
2023-05-25T07:27:17.490Z,22.88
2023-05-25T07:29:46.807Z,22.90
2023-05-25T07:32:18.523Z,22.67
2023-05-25T07:34:47.615Z,21.70
2023-05-25T07:37:16.428Z,21.98
2023-05-25T07:39:45.954Z,21.83
2023-05-25T07:42:20.751Z,22.52
2023-05-25T07:44:51.486Z,23.52
2023-05-25T07:47:20.263Z,23.40
2023-05-25T07:49:49.291Z,24.02
2023-05-25T07:52:19.029Z,22.65
2023-05-25T07:54:48.302Z,22.95
2023-05-25T07:57:17.233Z,21.00
2023-05-25T07:59:46.581Z,21.92
2023-05-25T08:02:16.913Z,22.20
2023-05-25T08:04:46.094Z,23.10
2023-05-25T08:07:14.953Z,22.58
2023-05-25T08:09:44.031Z,24.33
2023-05-25T08:12:34.359Z,22.60
2023-05-25T08:15:02.011Z,22.40
2023-05-25T08:17:33.978Z,22.20
2023-05-25T08:20:06.308Z,22.05
2023-05-25T08:22:36.143Z,20.13
2023-05-25T08:25:06.887Z,21.67
2023-05-25T08:27:36.380Z,21.92
2023-05-25T08:30:07.565Z,22.90
2023-05-25T08:32:37.832Z,22.15
2023-05-25T08:35:08.078Z,20.95
2023-05-25T08:37:36.891Z,21.45
2023-05-25T08:40:08.111Z,21.00
2023-05-25T08:42:37.098Z,20.42
2023-05-25T08:45:12.480Z,21.55
2023-05-25T08:47:50.008Z,18.90
2023-05-25T08:50:20.197Z,20.30
2023-05-25T08:52:54.494Z,20.40
2023-05-25T08:55:31.155Z,20.10
2023-05-25T08:58:07.989Z,19.02
2023-05-25T09:00:45.841Z,19.08
2023-05-25T09:03:19.120Z,19.08
2023-05-25T09:05:49.665Z,19.52
2023-05-25T09:08:18.901Z,18.73
2023-05-25T09:10:49.403Z,19.75
2023-05-25T09:13:22.489Z,19.77
2023-05-25T09:15:53.209Z,19.25
2023-05-25T09:18:23.376Z,20.10
2023-05-25T09:20:52.928Z,19.52
2023-05-25T09:23:22.896Z,19.60
2023-05-25T09:25:54.752Z,19.48
2023-05-25T09:28:27.300Z,22.13
2023-05-25T09:30:57.658Z,19.88
2023-05-25T09:33:28.275Z,19.33
2023-05-25T09:35:57.697Z,19.75
2023-05-25T09:38:27.252Z,20.08
2023-05-25T09:40:57.552Z,20.52
2023-05-25T09:43:39.724Z,18.45
2023-05-25T09:46:10.811Z,19.33
2023-05-25T09:48:42.061Z,19.23
2023-05-25T09:51:12.607Z,19.63
2023-05-25T09:53:41.934Z,19.88
2023-05-25T09:56:12.552Z,19.48
2023-05-25T09:58:42.282Z,20.67
2023-05-25T10:01:12.321Z,17.83
2023-05-25T10:03:59.685Z,18.85
2023-05-25T10:06:34.344Z,18.20
2023-05-25T10:09:05.395Z,18.63
2023-05-25T10:11:37.276Z,17.75
2023-05-25T10:14:08.814Z,18.10
2023-05-25T10:16:42.278Z,17.52
2023-05-25T10:19:22.200Z,16.55
2023-05-25T10:21:59.886Z,17.65
2023-05-25T10:24:39.502Z,16.60
2023-05-25T10:27:26.351Z,16.92
2023-05-25T10:29:58.457Z,20.13
2023-05-25T10:32:29.413Z,15.98
2023-05-25T10:35:03.029Z,17.20
2023-05-25T10:37:34.754Z,16.40
2023-05-25T10:40:04.896Z,16.85
2023-05-25T10:42:36.989Z,16.80
2023-05-25T10:45:09.787Z,15.40
2023-05-25T10:47:42.829Z,16.65
2023-05-25T10:50:24.454Z,16.80
2023-05-25T10:53:04.347Z,14.90
2023-05-25T10:55:44.889Z,14.20
2023-05-25T10:58:19.693Z,16.30
2023-05-25T11:01:00.375Z,15.65
2023-05-25T11:03:54.880Z,13.98
2023-05-25T11:06:59.056Z,15.57
2023-05-25T11:09:31.495Z,15.80
2023-05-25T11:12:04.624Z,15.70
2023-05-25T11:14:38.365Z,15.02
2023-05-25T11:17:10.669Z,15.95
2023-05-25T11:19:50.724Z,13.95
2023-05-25T11:22:23.637Z,16.23
2023-05-25T11:24:55.030Z,14.73
2023-05-25T11:27:24.808Z,14.80
2023-05-25T11:29:56.573Z,13.30
2023-05-25T11:32:26.381Z,11.90
2023-05-25T11:34:57.516Z,14.43
2023-05-25T11:37:31.611Z,14.75
2023-05-25T11:40:01.053Z,13.60
2023-05-25T11:42:31.883Z,14.43
2023-05-25T11:45:03.989Z,13.23
2023-05-25T11:47:35.098Z,13.38
2023-05-25T11:50:05.858Z,13.77
2023-05-25T11:52:36.098Z,12.48
2023-05-25T11:55:13.362Z,12.48
2023-05-25T11:57:42.799Z,14.25
2023-05-25T12:00:13.769Z,13.18
2023-05-25T12:02:43.734Z,12.88
2023-05-25T12:05:13.037Z,12.55
2023-05-25T12:07:47.189Z,13.25
2023-05-25T12:10:17.818Z,12.20
2023-05-25T12:12:48.910Z,14.38
2023-05-25T12:15:22.468Z,15.32
2023-05-25T12:17:53.715Z,15.20
2023-05-25T12:20:23.611Z,13.38
2023-05-25T12:22:54.010Z,12.63
2023-05-25T12:25:24.542Z,12.68
2023-05-25T12:28:11.549Z,14.38
2023-05-25T12:30:40.790Z,12.40
2023-05-25T12:33:10.131Z,13.52
2023-05-25T12:35:50.712Z,14.85
2023-05-25T12:38:22.598Z,14.10
2023-05-25T12:41:07.665Z,13.88
2023-05-25T12:43:40.586Z,11.90
2023-05-25T12:46:09.988Z,12.60
2023-05-25T12:48:38.951Z,12.25
2023-05-25T12:51:10.072Z,14.45
2023-05-25T12:53:51.171Z,12.45
2023-05-25T12:56:20.302Z,11.52
2023-05-25T12:58:49.135Z,11.75
2023-05-25T13:01:18.323Z,12.20
2023-05-25T13:03:47.183Z,12.20
2023-05-25T13:06:16.294Z,12.13
2023-05-25T13:08:45.499Z,11.38
2023-05-25T13:11:16.905Z,11.88
2023-05-25T13:13:46.174Z,11.25
2023-05-25T13:16:15.242Z,10.45
2023-05-25T13:18:44.037Z,10.48
2023-05-25T13:21:13.138Z,10.70
2023-05-25T13:23:41.858Z,9.90
2023-05-25T13:26:10.994Z,10.23
2023-05-25T13:28:41.175Z,10.55
2023-05-25T13:31:10.388Z,10.18
2023-05-25T13:33:39.298Z,10.38
2023-05-25T13:36:09.195Z,9.90
2023-05-25T13:38:39.082Z,8.55
2023-05-25T13:41:08.524Z,9.13
2023-05-25T13:43:38.049Z,9.48
2023-05-25T13:46:11.526Z,9.75
2023-05-25T13:48:47.443Z,9.88
2023-05-25T13:51:17.248Z,9.95
2023-05-25T13:53:46.456Z,10.18
2023-05-25T13:56:16.054Z,9.80
2023-05-25T13:58:44.817Z,9.63
2023-05-25T14:01:15.319Z,9.60
2023-05-25T14:03:44.292Z,9.23
2023-05-25T14:06:13.742Z,9.50
2023-05-25T14:08:42.569Z,10.13
2023-05-25T14:11:11.655Z,8.55
2023-05-25T14:13:40.440Z,9.60
2023-05-25T14:16:10.004Z,8.95
2023-05-25T14:18:40.130Z,9.45
2023-05-25T14:21:10.954Z,9.38
2023-05-25T14:23:39.898Z,9.52
2023-05-25T14:26:08.988Z,9.15
2023-05-25T14:28:37.756Z,9.13
2023-05-25T14:31:07.066Z,9.15
2023-05-25T14:33:42.852Z,9.80
2023-05-25T14:36:12.209Z,9.75
2023-05-25T14:38:40.977Z,9.73
2023-05-25T14:41:10.110Z,8.98
2023-05-25T14:43:38.917Z,9.25
2023-05-25T14:46:08.779Z,8.95
2023-05-25T14:48:39.138Z,9.35
2023-05-25T14:51:08.293Z,9.18
2023-05-25T14:53:37.014Z,8.88
2023-05-25T14:56:08.443Z,9.07
2023-05-25T14:58:38.524Z,9.70
2023-05-25T15:01:07.549Z,9.82
2023-05-25T15:03:36.522Z,9.35
2023-05-25T15:06:08.216Z,9.43
2023-05-25T15:08:37.798Z,9.32
2023-05-25T15:11:06.899Z,9.57
2023-05-25T15:13:35.997Z,10.07
2023-05-25T15:16:05.799Z,9.93
2023-05-25T15:18:34.552Z,9.20
2023-05-25T15:21:03.614Z,10.00
2023-05-25T15:23:33.781Z,9.70
2023-05-25T15:26:04.620Z,9.23
2023-05-25T15:28:33.599Z,9.70
2023-05-25T15:31:03.592Z,10.13
2023-05-25T15:33:51.589Z,9.18
2023-05-25T15:36:21.721Z,9.48
2023-05-25T15:38:53.278Z,9.27
2023-05-25T15:41:23.353Z,9.32
2023-05-25T15:43:57.976Z,10.13
2023-05-25T15:46:27.868Z,10.63
2023-05-25T15:48:56.931Z,9.80
2023-05-25T15:51:26.034Z,9.77
2023-05-25T15:53:56.273Z,10.02
2023-05-25T15:56:26.404Z,9.77
2023-05-25T15:58:55.238Z,9.57
2023-05-25T16:01:24.273Z,10.52
2023-05-25T16:03:53.087Z,9.45
2023-05-25T16:06:22.215Z,9.98
2023-05-25T16:08:50.962Z,9.98
2023-05-25T16:11:21.537Z,11.10
2023-05-25T16:13:50.417Z,10.32
2023-05-25T16:16:20.140Z,10.68
2023-05-25T16:18:49.174Z,10.18
2023-05-25T16:21:18.480Z,10.15
2023-05-25T16:23:47.240Z,10.25
2023-05-25T16:26:16.405Z,10.20
2023-05-25T16:28:46.495Z,11.20
2023-05-25T16:31:16.664Z,11.52
2023-05-25T16:33:46.349Z,10.25
2023-05-25T16:36:15.478Z,10.15
2023-05-25T16:38:44.265Z,10.02
2023-05-25T16:41:13.518Z,10.35
2023-05-25T16:43:42.230Z,10.82
2023-05-25T16:46:12.665Z,10.05
2023-05-25T16:48:41.558Z,10.13
2023-05-25T16:51:15.031Z,10.73
2023-05-25T16:53:45.281Z,10.85
2023-05-25T16:56:14.409Z,10.60
2023-05-25T16:58:43.168Z,10.48
2023-05-25T17:01:19.602Z,10.30
2023-05-25T17:03:48.607Z,10.85
2023-05-25T17:06:17.754Z,10.52
2023-05-25T17:08:46.519Z,10.23
2023-05-25T17:11:15.595Z,10.43
2023-05-25T17:13:44.362Z,10.10
2023-05-25T17:16:13.452Z,10.43
2023-05-25T17:18:43.664Z,10.40
2023-05-25T17:21:12.909Z,10.98
2023-05-25T17:23:41.693Z,10.60
2023-05-25T17:26:10.754Z,9.95
2023-05-25T17:28:39.615Z,9.88
2023-05-25T17:31:09.300Z,9.68
2023-05-25T17:33:39.056Z,10.35
2023-05-25T17:36:09.749Z,10.40
2023-05-25T17:38:38.500Z,9.25
2023-05-25T17:41:07.716Z,10.02
2023-05-25T17:43:36.543Z,10.43
2023-05-25T17:46:06.495Z,10.43
2023-05-25T17:48:35.471Z,9.52
2023-05-25T17:51:05.006Z,10.35
2023-05-25T17:53:35.127Z,9.63
2023-05-25T17:56:04.383Z,10.02
2023-05-25T17:58:33.315Z,8.95
2023-05-25T18:01:02.481Z,10.15
2023-05-25T18:03:31.515Z,9.48
2023-05-25T18:06:00.794Z,9.35
2023-05-25T18:08:29.583Z,9.80
2023-05-25T18:11:00.013Z,9.77
2023-05-25T18:13:28.804Z,9.60
2023-05-25T18:15:58.046Z,9.70
2023-05-25T18:18:26.855Z,9.60
2023-05-25T18:20:56.133Z,9.70
2023-05-25T18:23:26.378Z,9.73
2023-05-25T18:25:55.559Z,10.10
2023-05-25T18:28:25.854Z,9.73
2023-05-25T18:30:55.008Z,11.82
2023-05-25T18:33:23.853Z,9.82
2023-05-25T18:35:53.087Z,51.42
2023-05-25T18:38:22.000Z,9.15
2023-05-25T18:40:51.160Z,9.40
2023-05-25T18:43:19.951Z,26.30
2023-05-25T18:45:50.413Z,27.20
2023-05-25T18:48:19.288Z,10.18
2023-05-25T18:50:48.396Z,9.82
2023-05-25T18:53:17.278Z,10.18
2023-05-25T18:55:46.474Z,10.13
2023-05-25T18:58:15.602Z,9.63
2023-05-25T19:00:44.693Z,8.90
2023-05-25T19:03:15.156Z,9.63
2023-05-25T19:05:44.491Z,10.23
2023-05-25T19:08:13.394Z,9.57
2023-05-25T19:10:42.717Z,10.02
2023-05-25T19:13:11.613Z,10.15
2023-05-25T19:15:40.748Z,9.73
2023-05-25T19:18:09.623Z,9.77
2023-05-25T19:20:40.135Z,9.85
2023-05-25T19:23:09.236Z,10.38
2023-05-25T19:25:38.396Z,9.88
2023-05-25T19:28:07.339Z,9.95
2023-05-25T19:30:36.410Z,10.02
2023-05-25T19:33:05.399Z,9.63
2023-05-25T19:35:34.539Z,9.93
2023-05-25T19:38:04.713Z,9.68
2023-05-25T19:40:34.105Z,9.98
2023-05-25T19:43:03.052Z,10.23
2023-05-25T19:45:32.251Z,9.77
2023-05-25T19:48:01.735Z,11.15
2023-05-25T19:50:31.707Z,9.48
2023-05-25T19:53:01.163Z,9.13
2023-05-25T19:55:32.240Z,10.40
2023-05-25T19:58:01.024Z,9.90
2023-05-25T20:00:30.108Z,10.73
2023-05-25T20:02:58.896Z,11.00
2023-05-25T20:05:28.425Z,10.65
2023-05-25T20:07:57.154Z,10.57
2023-05-25T20:10:26.223Z,10.10
2023-05-25T20:12:59.253Z,10.32
2023-05-25T20:15:29.296Z,9.60
2023-05-25T20:17:58.002Z,9.93
2023-05-25T20:20:27.182Z,11.20
2023-05-25T20:22:56.550Z,11.10
2023-05-25T20:25:25.812Z,10.02
2023-05-25T20:27:54.514Z,10.80
2023-05-25T20:30:25.017Z,10.32
2023-05-25T20:32:53.989Z,10.30
2023-05-25T20:35:23.116Z,10.82
2023-05-25T20:37:52.097Z,10.80
2023-05-25T20:40:21.429Z,11.00
2023-05-25T20:42:50.293Z,10.63
2023-05-25T20:45:19.544Z,10.35
2023-05-25T20:47:59.201Z,11.07
2023-05-25T20:50:28.669Z,10.35
2023-05-25T20:52:58.139Z,9.98
2023-05-25T20:55:27.456Z,9.93
2023-05-25T20:57:57.081Z,10.43
2023-05-25T21:00:26.168Z,10.82
2023-05-25T21:02:56.379Z,10.48
2023-05-25T21:05:25.571Z,10.60
2023-05-25T21:07:54.618Z,10.70
2023-05-25T21:10:23.891Z,11.30
2023-05-25T21:12:52.704Z,10.68
2023-05-25T21:15:21.838Z,10.38
2023-05-25T21:17:50.837Z,12.25
2023-05-25T21:20:21.673Z,12.23
2023-05-25T21:22:50.487Z,13.30
2023-05-25T21:25:19.637Z,12.95
2023-05-25T21:27:48.409Z,11.70
2023-05-25T21:30:19.376Z,11.73
2023-05-25T21:32:48.597Z,12.57
2023-05-25T21:35:18.195Z,13.63
2023-05-25T21:37:48.331Z,13.38
2023-05-25T21:40:17.695Z,13.80
2023-05-25T21:42:47.079Z,13.65
2023-05-25T21:45:17.348Z,12.82
2023-05-25T21:47:46.227Z,13.02
2023-05-25T21:50:15.320Z,12.55
2023-05-25T21:52:44.278Z,13.45
2023-05-25T21:55:14.763Z,13.02
2023-05-25T21:57:43.958Z,12.43
2023-05-25T22:00:14.887Z,12.45
2023-05-25T22:02:44.745Z,11.00
2023-05-25T22:05:15.656Z,9.77
2023-05-25T22:07:44.455Z,8.98
2023-05-25T22:10:15.052Z,9.60
2023-05-25T22:12:44.429Z,8.65
2023-05-25T22:15:13.454Z,8.50
2023-05-25T22:17:42.212Z,8.48
2023-05-25T22:20:12.823Z,8.23
2023-05-25T22:22:42.367Z,8.45
2023-05-25T22:25:12.240Z,8.50
2023-05-25T22:27:42.355Z,8.82
2023-05-25T22:30:12.721Z,8.93
2023-05-25T22:32:41.534Z,9.13
2023-05-25T22:35:10.949Z,8.52
2023-05-25T22:37:39.694Z,8.32
2023-05-25T22:40:10.257Z,8.98
2023-05-25T22:42:39.051Z,7.93
2023-05-25T22:45:10.972Z,7.78
2023-05-25T22:47:39.764Z,8.60
2023-05-25T22:50:10.078Z,8.68
2023-05-25T22:52:38.877Z,9.38
2023-05-25T22:55:09.226Z,9.55
2023-05-25T22:57:38.145Z,8.95
2023-05-25T23:00:10.274Z,8.98
2023-05-25T23:02:39.062Z,10.38
2023-05-25T23:05:09.798Z,10.15
2023-05-25T23:07:38.608Z,11.18
2023-05-25T23:10:09.677Z,10.27
2023-05-25T23:12:38.410Z,10.80
2023-05-25T23:15:11.003Z,11.65
2023-05-25T23:17:39.862Z,10.60
2023-05-25T23:20:10.630Z,10.55
2023-05-25T23:22:39.459Z,10.75
2023-05-25T23:25:10.151Z,10.82
2023-05-25T23:27:39.081Z,10.13
2023-05-25T23:30:11.813Z,10.70
2023-05-25T23:32:40.594Z,10.27
2023-05-25T23:35:10.646Z,9.68
2023-05-25T23:37:39.343Z,9.75
2023-05-25T23:40:09.800Z,8.75
2023-05-25T23:42:45.331Z,9.25
2023-05-25T23:45:15.741Z,8.80
2023-05-25T23:47:44.569Z,8.80
2023-05-25T23:50:32.074Z,8.25
2023-05-25T23:53:00.849Z,7.75
2023-05-25T23:55:29.903Z,8.10
2023-05-25T23:57:58.636Z,7.40
